PWSweather.com
Personal Weather Stations
Station Observations
CW4114
Near Downtown, Rogers City, MI 49779

Near DowntownRogers City, MI 49779

Lat: 45.417443, Lon: -83.810642

Elevation: 605

Station Type: Davis Vantage Pro2 w/Solar

Latest ConditionsUpdated 12:25:42 PM EDT Thursday, Oct 2, 2014
Currently Today's Max Today's Min Today's Average
Temperature 60.4°F15.8°C 61.0°F16.1°C 55.6°F13.1°C 56.9°F13.8°C
Dew Point 58.1°F14.5°C 58.6°F14.8°C 54.7°F12.6°C 55.9°F13.3°C
Winds 2.0 mph SE3.2 kmh SE 4.9 mph SSW7.9 kmh SSW - 2.5 mph 4.0 kmh
Wind Gusts 6.9 mph11.1 kmh 11.0 mph17.7 kmh - -
Humidity 92% 98% 92% 97%
Pressure 29.95 in1014.2 mb 30.01 in1016.3 mb 29.95 in1014.2 mb -
Hour Temp Dew Point Humidity Winds Wind Gusts Pressure Precip Precip Rate Daily Precip Total
12:25 PM 60.4°F15.8°C 58.1°F14.5°C 92% 2.0 mph SE3.2 kmh SE 6.9 mph11.1 kmh 29.95 in1014.2 mb 0.00 in0.0 mm 0.00 in/hr0.0 mm/hr 0.00 in0.0 mm
12:20 PM 60.6°F15.9°C 58.3°F14.6°C 92% 2.9 mph SE4.7 kmh SE 6.0 mph9.7 kmh 29.95 in1014.2 mb 0.00 in0.0 mm 0.00 in/hr0.0 mm/hr 0.00 in0.0 mm
12:15 PM 60.8°F16.0°C 58.5°F14.7°C 92% 2.9 mph SSE4.7 kmh SSE 8.9 mph14.3 kmh 29.95 in1014.2 mb 0.00 in0.0 mm 0.00 in/hr0.0 mm/hr 0.00 in0.0 mm
12:10 PM 61.0°F16.1°C 58.6°F14.8°C 92% 2.0 mph SSE3.2 kmh SSE 6.0 mph9.7 kmh 29.95 in1014.2 mb 0.00 in0.0 mm 0.00 in/hr0.0 mm/hr 0.00 in0.0 mm
12:05 PM 60.8°F16.0°C 58.5°F14.7°C 92% 2.0 mph ESE3.2 kmh ESE 6.9 mph11.1 kmh 29.95 in1014.2 mb 0.00 in0.0 mm 0.00 in/hr0.0 mm/hr 0.00 in0.0 mm
12:00 PM 60.8°F16.0°C 58.5°F14.7°C 92% 2.9 mph SE4.7 kmh SE 4.9 mph7.9 kmh 29.96 in1014.6 mb 0.00 in0.0 mm 0.00 in/hr0.0 mm/hr 0.00 in0.0 mm
11:55 AM 60.6°F15.9°C 58.3°F14.6°C 92% 2.9 mph SE4.7 kmh SE 6.0 mph9.7 kmh 29.96 in1014.6 mb 0.00 in0.0 mm 0.00 in/hr0.0 mm/hr 0.00 in0.0 mm
11:50 AM 60.6°F15.9°C 58.3°F14.6°C 92% 2.9 mph S4.7 kmh S 6.9 mph11.1 kmh 29.96 in1014.6 mb 0.00 in0.0 mm 0.00 in/hr0.0 mm/hr 0.00 in0.0 mm
11:45 AM 60.4°F15.8°C 58.1°F14.5°C 92% 2.0 mph SE3.2 kmh SE 8.1 mph13.0 kmh 29.96 in1014.6 mb 0.00 in0.0 mm 0.00 in/hr0.0 mm/hr 0.00 in0.0 mm
11:40 AM 60.4°F15.8°C 58.5°F14.7°C 93% 2.0 mph SE3.2 kmh SE 4.9 mph7.9 kmh 29.95 in1014.2 mb 0.00 in0.0 mm 0.00 in/hr0.0 mm/hr 0.00 in0.0 mm
11:35 AM 60.3°F15.7°C 58.3°F14.6°C 93% 2.0 mph SSE3.2 kmh SSE 7.0 mph11.3 kmh 29.96 in1014.6 mb 0.00 in0.0 mm 0.00 in/hr0.0 mm/hr 0.00 in0.0 mm
11:30 AM 60.1°F15.6°C 58.1°F14.5°C 93% 2.0 mph SE3.2 kmh SE 4.0 mph6.4 kmh 29.96 in1014.6 mb 0.00 in0.0 mm 0.00 in/hr0.0 mm/hr 0.00 in0.0 mm
11:25 AM 60.1°F15.6°C 58.3°F14.6°C 94% 2.0 mph SE3.2 kmh SE 6.0 mph9.7 kmh 29.96 in1014.6 mb 0.00 in0.0 mm 0.00 in/hr0.0 mm/hr 0.00 in0.0 mm
11:20 AM 59.7°F15.4°C 57.9°F14.4°C 94% 2.0 mph SSE3.2 kmh SSE 4.0 mph6.4 kmh 29.96 in1014.6 mb 0.00 in0.0 mm 0.00 in/hr0.0 mm/hr 0.00 in0.0 mm
11:15 AM 59.7°F15.4°C 57.9°F14.4°C 94% 2.0 mph SE3.2 kmh SE 4.9 mph7.9 kmh 29.96 in1014.6 mb 0.00 in0.0 mm 0.00 in/hr0.0 mm/hr 0.00 in0.0 mm
11:10 AM 59.5°F15.3°C 57.7°F14.3°C 94% 2.0 mph S3.2 kmh S 4.9 mph7.9 kmh 29.96 in1014.6 mb 0.00 in0.0 mm 0.00 in/hr0.0 mm/hr 0.00 in0.0 mm
11:05 AM 59.4°F15.2°C 57.6°F14.2°C 94% 2.9 mph SSE4.7 kmh SSE 7.0 mph11.3 kmh 29.96 in1014.6 mb 0.00 in0.0 mm 0.00 in/hr0.0 mm/hr 0.00 in0.0 mm
11:00 AM 59.2°F15.1°C 57.4°F14.1°C 94% 2.9 mph SE4.7 kmh SE 6.0 mph9.7 kmh 29.96 in1014.6 mb 0.00 in0.0 mm 0.00 in/hr0.0 mm/hr 0.00 in0.0 mm
10:55 AM 59.2°F15.1°C 57.7°F14.3°C 95% 2.0 mph SSE3.2 kmh SSE 6.0 mph9.7 kmh 29.96 in1014.6 mb 0.00 in0.0 mm 0.00 in/hr0.0 mm/hr 0.00 in0.0 mm
10:50 AM 59.0°F15.0°C 57.6°F14.2°C 95% 2.9 mph SE4.7 kmh SE 6.0 mph9.7 kmh 29.96 in1014.6 mb 0.00 in0.0 mm 0.00 in/hr0.0 mm/hr 0.00 in0.0 mm
10:45 AM 58.8°F14.9°C 57.4°F14.1°C 95% 2.9 mph S4.7 kmh S 9.0 mph14.5 kmh 29.97 in1014.9 mb 0.00 in0.0 mm 0.00 in/hr0.0 mm/hr 0.00 in0.0 mm
10:40 AM 58.8°F14.9°C 57.4°F14.1°C 95% 2.9 mph ESE4.7 kmh ESE 8.1 mph13.0 kmh 29.97 in1014.9 mb 0.00 in0.0 mm 0.00 in/hr0.0 mm/hr 0.00 in0.0 mm
10:35 AM 58.8°F14.9°C 57.4°F14.1°C 95% 2.0 mph SSE3.2 kmh SSE 8.0 mph12.9 kmh 29.97 in1014.9 mb 0.00 in0.0 mm 0.00 in/hr0.0 mm/hr 0.00 in0.0 mm
10:30 AM 58.6°F14.8°C 56.8°F13.8°C 94% 2.0 mph SE3.2 kmh SE 6.9 mph11.1 kmh 29.96 in1014.6 mb 0.00 in0.0 mm 0.00 in/hr0.0 mm/hr 0.00 in0.0 mm
10:25 AM 58.6°F14.8°C 57.2°F14.0°C 95% 2.9 mph SE4.7 kmh SE 8.1 mph13.0 kmh 29.97 in1014.9 mb 0.00 in0.0 mm 0.00 in/hr0.0 mm/hr 0.00 in0.0 mm
10:20 AM 58.5°F14.7°C 57.0°F13.9°C 95% 2.9 mph ESE4.7 kmh ESE 8.1 mph13.0 kmh 29.97 in1014.9 mb 0.00 in0.0 mm 0.00 in/hr0.0 mm/hr 0.00 in0.0 mm
10:15 AM 58.5°F14.7°C 57.0°F13.9°C 95% 2.9 mph SE4.7 kmh SE 6.0 mph9.7 kmh 29.97 in1014.9 mb 0.00 in0.0 mm 0.00 in/hr0.0 mm/hr 0.00 in0.0 mm
10:10 AM 58.3°F14.6°C 56.8°F13.8°C 95% 2.9 mph SSE4.7 kmh SSE 9.0 mph14.5 kmh 29.97 in1014.9 mb 0.00 in0.0 mm 0.00 in/hr0.0 mm/hr 0.00 in0.0 mm
10:05 AM 57.9°F14.4°C 56.8°F13.8°C 96% 4.0 mph SE6.4 kmh SE 8.1 mph13.0 kmh 29.97 in1014.9 mb 0.00 in0.0 mm 0.00 in/hr0.0 mm/hr 0.00 in0.0 mm
10:00 AM 57.7°F14.3°C 56.8°F13.8°C 97% 4.0 mph SSE6.4 kmh SSE 6.9 mph11.1 kmh 29.97 in1014.9 mb 0.00 in0.0 mm 0.00 in/hr0.0 mm/hr 0.00 in0.0 mm
09:55 AM 57.4°F14.1°C 56.5°F13.6°C 97% 2.9 mph SE4.7 kmh SE 8.1 mph13.0 kmh 29.97 in1014.9 mb 0.00 in0.0 mm 0.00 in/hr0.0 mm/hr 0.00 in0.0 mm
09:50 AM 57.2°F14.0°C 56.7°F13.7°C 98% 2.9 mph S4.7 kmh S 6.9 mph11.1 kmh 29.97 in1014.9 mb 0.00 in0.0 mm 0.00 in/hr0.0 mm/hr 0.00 in0.0 mm
09:45 AM 57.0°F13.9°C 56.5°F13.6°C 98% 2.0 mph S3.2 kmh S 4.9 mph7.9 kmh 29.97 in1014.9 mb 0.00 in0.0 mm 0.00 in/hr0.0 mm/hr 0.00 in0.0 mm
09:40 AM 56.8°F13.8°C 55.9°F13.3°C 97% 2.0 mph SE3.2 kmh SE 4.0 mph6.4 kmh 29.97 in1014.9 mb 0.00 in0.0 mm 0.00 in/hr0.0 mm/hr 0.00 in0.0 mm
09:35 AM 56.8°F13.8°C 55.9°F13.3°C 97% 2.0 mph SE3.2 kmh SE 4.0 mph6.4 kmh 29.98 in1015.2 mb 0.00 in0.0 mm 0.00 in/hr0.0 mm/hr 0.00 in0.0 mm
09:30 AM 56.8°F13.8°C 56.3°F13.5°C 98% 0.9 mph SE1.4 kmh SE 4.0 mph6.4 kmh 29.98 in1015.2 mb 0.00 in0.0 mm 0.00 in/hr0.0 mm/hr 0.00 in0.0 mm
09:25 AM 56.8°F13.8°C 56.3°F13.5°C 98% 0.9 mph SE1.4 kmh SE 2.9 mph4.7 kmh 29.98 in1015.2 mb 0.00 in0.0 mm 0.00 in/hr0.0 mm/hr 0.00 in0.0 mm
09:20 AM 56.8°F13.8°C 56.3°F13.5°C 98% 0.9 mph SSE1.4 kmh SSE 2.9 mph4.7 kmh 29.98 in1015.2 mb 0.00 in0.0 mm 0.00 in/hr0.0 mm/hr 0.00 in0.0 mm
09:15 AM 56.7°F13.7°C 56.1°F13.4°C 98% 0.9 mph SSE1.4 kmh SSE 2.9 mph4.7 kmh 29.98 in1015.2 mb 0.00 in0.0 mm 0.00 in/hr0.0 mm/hr 0.00 in0.0 mm
09:10 AM 56.7°F13.7°C 56.1°F13.4°C 98% 0.9 mph E1.4 kmh E 4.0 mph6.4 kmh 29.98 in1015.2 mb 0.00 in0.0 mm 0.00 in/hr0.0 mm/hr 0.00 in0.0 mm
09:05 AM 56.7°F13.7°C 56.1°F13.4°C 98% 0.9 mph SE1.4 kmh SE 5.0 mph8.0 kmh 29.98 in1015.2 mb 0.00 in0.0 mm 0.00 in/hr0.0 mm/hr 0.00 in0.0 mm
09:00 AM 56.7°F13.7°C 56.1°F13.4°C 98% 2.0 mph SE3.2 kmh SE 4.0 mph6.4 kmh 29.98 in1015.2 mb 0.00 in0.0 mm 0.00 in/hr0.0 mm/hr 0.00 in0.0 mm
08:55 AM 56.5°F13.6°C 55.9°F13.3°C 98% 2.0 mph ESE3.2 kmh ESE 4.9 mph7.9 kmh 29.97 in1014.9 mb 0.00 in0.0 mm 0.00 in/hr0.0 mm/hr 0.00 in0.0 mm
08:50 AM 56.5°F13.6°C 55.9°F13.3°C 98% 2.0 mph E3.2 kmh E 4.9 mph7.9 kmh 29.97 in1014.9 mb 0.00 in0.0 mm 0.00 in/hr0.0 mm/hr 0.00 in0.0 mm
08:45 AM 56.5°F13.6°C 55.9°F13.3°C 98% 2.0 mph ESE3.2 kmh ESE 4.0 mph6.4 kmh 29.97 in1014.9 mb 0.00 in0.0 mm 0.00 in/hr0.0 mm/hr 0.00 in0.0 mm
08:40 AM 56.3°F13.5°C 55.8°F13.2°C 98% 2.0 mph E3.2 kmh E 4.9 mph7.9 kmh 29.97 in1014.9 mb 0.00 in0.0 mm 0.00 in/hr0.0 mm/hr 0.00 in0.0 mm
08:35 AM 56.1°F13.4°C 55.6°F13.1°C 98% 2.9 mph SE4.7 kmh SE 6.0 mph9.7 kmh 29.97 in1014.9 mb 0.00 in0.0 mm 0.00 in/hr0.0 mm/hr 0.00 in0.0 mm
08:30 AM 56.1°F13.4°C 55.6°F13.1°C 98% 2.9 mph ESE4.7 kmh ESE 4.9 mph7.9 kmh 29.97 in1014.9 mb 0.00 in0.0 mm 0.00 in/hr0.0 mm/hr 0.00 in0.0 mm
08:25 AM 55.9°F13.3°C 55.4°F13.0°C 98% 2.0 mph ESE3.2 kmh ESE 4.9 mph7.9 kmh 29.98 in1015.2 mb 0.00 in0.0 mm 0.00 in/hr0.0 mm/hr 0.00 in0.0 mm
08:20 AM 55.9°F13.3°C 55.4°F13.0°C 98% 0.9 mph SE1.4 kmh SE 4.0 mph6.4 kmh 29.98 in1015.2 mb 0.00 in0.0 mm 0.00 in/hr0.0 mm/hr 0.00 in0.0 mm
08:15 AM 55.8°F13.2°C 55.2°F12.9°C 98% 0.9 mph SE1.4 kmh SE 4.0 mph6.4 kmh 29.98 in1015.2 mb 0.00 in0.0 mm 0.00 in/hr0.0 mm/hr 0.00 in0.0 mm
08:10 AM 55.8°F13.2°C 55.2°F12.9°C 98% Calm Calm 2.9 mph4.7 kmh 29.98 in1015.2 mb 0.00 in0.0 mm 0.00 in/hr0.0 mm/hr 0.00 in0.0 mm
08:05 AM 55.8°F13.2°C 55.2°F12.9°C 98% 0.9 mph SSE1.4 kmh SSE 2.0 mph3.2 kmh 29.98 in1015.2 mb 0.00 in0.0 mm 0.00 in/hr0.0 mm/hr 0.00 in0.0 mm
08:00 AM 55.6°F13.1°C 55.0°F12.8°C 98% 2.0 mph SSE3.2 kmh SSE 6.0 mph9.7 kmh 29.98 in1015.2 mb 0.00 in0.0 mm 0.00 in/hr0.0 mm/hr 0.00 in0.0 mm
07:55 AM 55.6°F13.1°C 54.7°F12.6°C 97% 0.9 mph S1.4 kmh S 4.0 mph6.4 kmh 29.98 in1015.2 mb 0.00 in0.0 mm 0.00 in/hr0.0 mm/hr 0.00 in0.0 mm
07:50 AM 55.8°F13.2°C 54.9°F12.7°C 97% 0.9 mph S1.4 kmh S 2.9 mph4.7 kmh 29.99 in1015.6 mb 0.00 in0.0 mm 0.00 in/hr0.0 mm/hr 0.00 in0.0 mm
07:45 AM 55.8°F13.2°C 54.9°F12.7°C 97% 0.9 mph SSW1.4 kmh SSW 2.9 mph4.7 kmh 29.99 in1015.6 mb 0.00 in0.0 mm 0.00 in/hr0.0 mm/hr 0.00 in0.0 mm
07:40 AM 55.9°F13.3°C 55.0°F12.8°C 97% 0.9 mph SSE1.4 kmh SSE 4.0 mph6.4 kmh 29.98 in1015.2 mb 0.00 in0.0 mm 0.00 in/hr0.0 mm/hr 0.00 in0.0 mm
07:35 AM 55.9°F13.3°C 55.4°F13.0°C 98% 0.9 mph SE1.4 kmh SE 4.0 mph6.4 kmh 29.98 in1015.2 mb 0.00 in0.0 mm 0.00 in/hr0.0 mm/hr 0.00 in0.0 mm
07:30 AM 55.9°F13.3°C 55.4°F13.0°C 98% 0.9 mph WSW1.4 kmh WSW 2.9 mph4.7 kmh 29.99 in1015.6 mb 0.00 in0.0 mm 0.00 in/hr0.0 mm/hr 0.00 in0.0 mm
07:25 AM 55.9°F13.3°C 55.4°F13.0°C 98% Calm Calm 2.9 mph4.7 kmh 29.99 in1015.6 mb 0.00 in0.0 mm 0.00 in/hr0.0 mm/hr 0.00 in0.0 mm
07:20 AM 55.9°F13.3°C 55.4°F13.0°C 98% 2.0 mph S3.2 kmh S 2.9 mph4.7 kmh 29.98 in1015.2 mb 0.00 in0.0 mm 0.00 in/hr0.0 mm/hr 0.00 in0.0 mm
07:15 AM 55.9°F13.3°C 55.4°F13.0°C 98% 2.9 mph SSW4.7 kmh SSW 6.9 mph11.1 kmh 29.98 in1015.2 mb 0.00 in0.0 mm 0.00 in/hr0.0 mm/hr 0.00 in0.0 mm
07:10 AM 55.9°F13.3°C 55.4°F13.0°C 98% 2.0 mph SE3.2 kmh SE 7.0 mph11.3 kmh 29.97 in1014.9 mb 0.00 in0.0 mm 0.00 in/hr0.0 mm/hr 0.00 in0.0 mm
07:05 AM 55.9°F13.3°C 55.4°F13.0°C 98% 2.0 mph S3.2 kmh S 4.0 mph6.4 kmh 29.97 in1014.9 mb 0.00 in0.0 mm 0.00 in/hr0.0 mm/hr 0.00 in0.0 mm
07:00 AM 55.9°F13.3°C 55.4°F13.0°C 98% 2.9 mph SSE4.7 kmh SSE 6.9 mph11.1 kmh 29.97 in1014.9 mb 0.00 in0.0 mm 0.00 in/hr0.0 mm/hr 0.00 in0.0 mm
06:55 AM 55.9°F13.3°C 55.4°F13.0°C 98% 2.9 mph SSE4.7 kmh SSE 9.0 mph14.5 kmh 29.97 in1014.9 mb 0.00 in0.0 mm 0.00 in/hr0.0 mm/hr 0.00 in0.0 mm
06:50 AM 55.9°F13.3°C 55.4°F13.0°C 98% 2.9 mph S4.7 kmh S 9.0 mph14.5 kmh 29.97 in1014.9 mb 0.00 in0.0 mm 0.00 in/hr0.0 mm/hr 0.00 in0.0 mm
06:45 AM 55.8°F13.2°C 55.2°F12.9°C 98% 4.0 mph SSW6.4 kmh SSW 6.0 mph9.7 kmh 29.97 in1014.9 mb 0.00 in0.0 mm 0.00 in/hr0.0 mm/hr 0.00 in0.0 mm
06:40 AM 55.8°F13.2°C 55.2°F12.9°C 98% 4.0 mph S6.4 kmh S 6.9 mph11.1 kmh 29.97 in1014.9 mb 0.00 in0.0 mm 0.00 in/hr0.0 mm/hr 0.00 in0.0 mm
06:35 AM 55.8°F13.2°C 55.2°F12.9°C 98% 2.9 mph S4.7 kmh S 6.9 mph11.1 kmh 29.97 in1014.9 mb 0.00 in0.0 mm 0.00 in/hr0.0 mm/hr 0.00 in0.0 mm
06:30 AM 55.8°F13.2°C 55.2°F12.9°C 98% 2.9 mph SSE4.7 kmh SSE 6.0 mph9.7 kmh 29.97 in1014.9 mb 0.00 in0.0 mm 0.00 in/hr0.0 mm/hr 0.00 in0.0 mm
06:25 AM 55.6°F13.1°C 55.0°F12.8°C 98% 2.0 mph SE3.2 kmh SE 6.9 mph11.1 kmh 29.97 in1014.9 mb 0.00 in0.0 mm 0.00 in/hr0.0 mm/hr 0.00 in0.0 mm
06:20 AM 55.6°F13.1°C 54.7°F12.6°C 97% 2.0 mph S3.2 kmh S 6.0 mph9.7 kmh 29.97 in1014.9 mb 0.00 in0.0 mm 0.00 in/hr0.0 mm/hr 0.00 in0.0 mm
06:15 AM 55.6°F13.1°C 54.7°F12.6°C 97% 2.0 mph SSW3.2 kmh SSW 4.0 mph6.4 kmh 29.97 in1014.9 mb 0.00 in0.0 mm 0.00 in/hr0.0 mm/hr 0.00 in0.0 mm
06:10 AM 55.6°F13.1°C 54.7°F12.6°C 97% 2.0 mph S3.2 kmh S 6.0 mph9.7 kmh 29.97 in1014.9 mb 0.00 in0.0 mm 0.00 in/hr0.0 mm/hr 0.00 in0.0 mm
06:05 AM 55.6°F13.1°C 54.7°F12.6°C 97% 2.9 mph SSW4.7 kmh SSW 6.9 mph11.1 kmh 29.97 in1014.9 mb 0.00 in0.0 mm 0.00 in/hr0.0 mm/hr 0.00 in0.0 mm
06:00 AM 55.8°F13.2°C 54.9°F12.7°C 97% 2.9 mph SSW4.7 kmh SSW 6.0 mph9.7 kmh 29.97 in1014.9 mb 0.00 in0.0 mm 0.00 in/hr0.0 mm/hr 0.00 in0.0 mm
05:55 AM 55.8°F13.2°C 54.9°F12.7°C 97% 2.9 mph S4.7 kmh S 8.1 mph13.0 kmh 29.96 in1014.6 mb 0.00 in0.0 mm 0.00 in/hr0.0 mm/hr 0.00 in0.0 mm
05:50 AM 55.8°F13.2°C 54.9°F12.7°C 97% 2.9 mph S4.7 kmh S 6.0 mph9.7 kmh 29.96 in1014.6 mb 0.00 in0.0 mm 0.00 in/hr0.0 mm/hr 0.00 in0.0 mm
05:45 AM 55.8°F13.2°C 54.9°F12.7°C 97% 2.9 mph S4.7 kmh S 6.0 mph9.7 kmh 29.96 in1014.6 mb 0.00 in0.0 mm 0.00 in/hr0.0 mm/hr 0.00 in0.0 mm
05:40 AM 55.8°F13.2°C 54.9°F12.7°C 97% 2.9 mph SE4.7 kmh SE 6.0 mph9.7 kmh 29.96 in1014.6 mb 0.00 in0.0 mm 0.00 in/hr0.0 mm/hr 0.00 in0.0 mm
05:35 AM 55.8°F13.2°C 54.9°F12.7°C 97% 2.9 mph S4.7 kmh S 6.0 mph9.7 kmh 29.97 in1014.9 mb 0.00 in0.0 mm 0.00 in/hr0.0 mm/hr 0.00 in0.0 mm
05:30 AM 55.8°F13.2°C 54.9°F12.7°C 97% 2.9 mph S4.7 kmh S 6.0 mph9.7 kmh 29.96 in1014.6 mb 0.00 in0.0 mm 0.00 in/hr0.0 mm/hr 0.00 in0.0 mm
05:25 AM 55.9°F13.3°C 55.0°F12.8°C 97% 2.9 mph S4.7 kmh S 6.0 mph9.7 kmh 29.97 in1014.9 mb 0.00 in0.0 mm 0.00 in/hr0.0 mm/hr 0.00 in0.0 mm
05:20 AM 55.9°F13.3°C 55.0°F12.8°C 97% 4.0 mph S6.4 kmh S 8.1 mph13.0 kmh 29.96 in1014.6 mb 0.00 in0.0 mm 0.00 in/hr0.0 mm/hr 0.00 in0.0 mm
05:15 AM 55.9°F13.3°C 55.0°F12.8°C 97% 4.0 mph S6.4 kmh S 6.9 mph11.1 kmh 29.96 in1014.6 mb 0.00 in0.0 mm 0.00 in/hr0.0 mm/hr 0.00 in0.0 mm
05:10 AM 56.1°F13.4°C 55.2°F12.9°C 97% 4.0 mph SE6.4 kmh SE 8.1 mph13.0 kmh 29.97 in1014.9 mb 0.00 in0.0 mm 0.00 in/hr0.0 mm/hr 0.00 in0.0 mm
05:05 AM 56.1°F13.4°C 55.2°F12.9°C 97% 4.0 mph SE6.4 kmh SE 10.1 mph16.3 kmh 29.97 in1014.9 mb 0.00 in0.0 mm 0.00 in/hr0.0 mm/hr 0.00 in0.0 mm
05:00 AM 56.1°F13.4°C 55.2°F12.9°C 97% 4.0 mph S6.4 kmh S 10.1 mph16.3 kmh 29.97 in1014.9 mb 0.00 in0.0 mm 0.00 in/hr0.0 mm/hr 0.00 in0.0 mm
04:55 AM 56.1°F13.4°C 55.2°F12.9°C 97% 4.0 mph S6.4 kmh S 6.9 mph11.1 kmh 29.97 in1014.9 mb 0.00 in0.0 mm 0.00 in/hr0.0 mm/hr 0.00 in0.0 mm
04:50 AM 56.1°F13.4°C 55.2°F12.9°C 97% 4.0 mph S6.4 kmh S 10.0 mph16.1 kmh 29.97 in1014.9 mb 0.00 in0.0 mm 0.00 in/hr0.0 mm/hr 0.00 in0.0 mm
04:45 AM 56.1°F13.4°C 55.2°F12.9°C 97% 4.0 mph SSE6.4 kmh SSE 8.9 mph14.3 kmh 29.97 in1014.9 mb 0.00 in0.0 mm 0.00 in/hr0.0 mm/hr 0.00 in0.0 mm
04:40 AM 56.3°F13.5°C 55.4°F13.0°C 97% 4.0 mph S6.4 kmh S 8.9 mph14.3 kmh 29.97 in1014.9 mb 0.00 in0.0 mm 0.00 in/hr0.0 mm/hr 0.00 in0.0 mm
04:35 AM 56.3°F13.5°C 55.4°F13.0°C 97% 4.9 mph SSE7.9 kmh SSE 10.1 mph16.3 kmh 29.97 in1014.9 mb 0.00 in0.0 mm 0.00 in/hr0.0 mm/hr 0.00 in0.0 mm
04:30 AM 56.5°F13.6°C 55.6°F13.1°C 97% 4.9 mph S7.9 kmh S 8.1 mph13.0 kmh 29.97 in1014.9 mb 0.00 in0.0 mm 0.00 in/hr0.0 mm/hr 0.00 in0.0 mm
04:25 AM 56.5°F13.6°C 55.6°F13.1°C 97% 4.9 mph SSE7.9 kmh SSE 11.0 mph17.7 kmh 29.97 in1014.9 mb 0.00 in0.0 mm 0.00 in/hr0.0 mm/hr 0.00 in0.0 mm
04:20 AM 56.5°F13.6°C 55.6°F13.1°C 97% 4.0 mph SW6.4 kmh SW 8.9 mph14.3 kmh 29.97 in1014.9 mb 0.00 in0.0 mm 0.00 in/hr0.0 mm/hr 0.00 in0.0 mm
04:15 AM 56.5°F13.6°C 55.6°F13.1°C 97% 4.0 mph S6.4 kmh S 11.0 mph17.7 kmh 29.97 in1014.9 mb 0.00 in0.0 mm 0.00 in/hr0.0 mm/hr 0.00 in0.0 mm
04:10 AM 56.5°F13.6°C 55.6°F13.1°C 97% 4.0 mph S6.4 kmh S 10.1 mph16.3 kmh 29.98 in1015.2 mb 0.00 in0.0 mm 0.00 in/hr0.0 mm/hr 0.00 in0.0 mm
04:05 AM 56.5°F13.6°C 55.6°F13.1°C 97% 4.9 mph SSW7.9 kmh SSW 10.1 mph16.3 kmh 29.98 in1015.2 mb 0.00 in0.0 mm 0.00 in/hr0.0 mm/hr 0.00 in0.0 mm
04:00 AM 56.5°F13.6°C 55.6°F13.1°C 97% 4.9 mph S7.9 kmh S 10.1 mph16.3 kmh 29.98 in1015.2 mb 0.00 in0.0 mm 0.00 in/hr0.0 mm/hr 0.00 in0.0 mm
03:55 AM 56.5°F13.6°C 55.6°F13.1°C 97% 4.0 mph SE6.4 kmh SE 8.9 mph14.3 kmh 29.98 in1015.2 mb 0.00 in0.0 mm 0.00 in/hr0.0 mm/hr 0.00 in0.0 mm
03:50 AM 56.5°F13.6°C 55.6°F13.1°C 97% 4.0 mph S6.4 kmh S 10.1 mph16.3 kmh 29.98 in1015.2 mb 0.00 in0.0 mm 0.00 in/hr0.0 mm/hr 0.00 in0.0 mm
03:45 AM 56.1°F13.4°C 55.6°F13.1°C 98% 2.9 mph S4.7 kmh S 8.1 mph13.0 kmh 29.99 in1015.6 mb 0.00 in0.0 mm 0.00 in/hr0.0 mm/hr 0.00 in0.0 mm
03:40 AM 56.1°F13.4°C 55.6°F13.1°C 98% 2.9 mph S4.7 kmh S 6.9 mph11.1 kmh 29.99 in1015.6 mb 0.00 in0.0 mm 0.00 in/hr0.0 mm/hr 0.00 in0.0 mm
03:35 AM 55.9°F13.3°C 55.4°F13.0°C 98% 2.9 mph S4.7 kmh S 6.0 mph9.7 kmh 29.99 in1015.6 mb 0.00 in0.0 mm 0.00 in/hr0.0 mm/hr 0.00 in0.0 mm
03:30 AM 55.9°F13.3°C 55.4°F13.0°C 98% 2.0 mph SSW3.2 kmh SSW 6.9 mph11.1 kmh 29.98 in1015.2 mb 0.00 in0.0 mm 0.00 in/hr0.0 mm/hr 0.00 in0.0 mm
03:25 AM 55.9°F13.3°C 55.4°F13.0°C 98% 2.0 mph SSW3.2 kmh SSW 6.0 mph9.7 kmh 29.98 in1015.2 mb 0.00 in0.0 mm 0.00 in/hr0.0 mm/hr 0.00 in0.0 mm
03:20 AM 55.9°F13.3°C 55.4°F13.0°C 98% 2.9 mph S4.7 kmh S 6.0 mph9.7 kmh 29.98 in1015.2 mb 0.00 in0.0 mm 0.00 in/hr0.0 mm/hr 0.00 in0.0 mm
03:15 AM 55.9°F13.3°C 55.4°F13.0°C 98% 2.9 mph S4.7 kmh S 6.9 mph11.1 kmh 29.98 in1015.2 mb 0.00 in0.0 mm 0.00 in/hr0.0 mm/hr 0.00 in0.0 mm
03:10 AM 55.8°F13.2°C 55.2°F12.9°C 98% 4.0 mph SE6.4 kmh SE 8.9 mph14.3 kmh 29.98 in1015.2 mb 0.00 in0.0 mm 0.00 in/hr0.0 mm/hr 0.00 in0.0 mm
03:05 AM 55.8°F13.2°C 55.2°F12.9°C 98% 2.9 mph SE4.7 kmh SE 6.9 mph11.1 kmh 29.98 in1015.2 mb 0.00 in0.0 mm 0.00 in/hr0.0 mm/hr 0.00 in0.0 mm
03:00 AM 55.8°F13.2°C 55.2°F12.9°C 98% 2.0 mph SSE3.2 kmh SSE 6.9 mph11.1 kmh 29.98 in1015.2 mb 0.00 in0.0 mm 0.00 in/hr0.0 mm/hr 0.00 in0.0 mm
02:55 AM 55.8°F13.2°C 55.2°F12.9°C 98% 2.0 mph S3.2 kmh S 6.0 mph9.7 kmh 29.99 in1015.6 mb 0.00 in0.0 mm 0.00 in/hr0.0 mm/hr 0.00 in0.0 mm
02:50 AM 55.8°F13.2°C 55.2°F12.9°C 98% 2.0 mph S3.2 kmh S 6.0 mph9.7 kmh 29.99 in1015.6 mb 0.00 in0.0 mm 0.00 in/hr0.0 mm/hr 0.00 in0.0 mm
02:45 AM 55.8°F13.2°C 55.2°F12.9°C 98% 2.0 mph S3.2 kmh S 4.9 mph7.9 kmh 29.99 in1015.6 mb 0.00 in0.0 mm 0.00 in/hr0.0 mm/hr 0.00 in0.0 mm
02:40 AM 55.8°F13.2°C 55.2°F12.9°C 98% 2.9 mph SSE4.7 kmh SSE 6.9 mph11.1 kmh 29.99 in1015.6 mb 0.00 in0.0 mm 0.00 in/hr0.0 mm/hr 0.00 in0.0 mm
02:35 AM 55.8°F13.2°C 55.2°F12.9°C 98% 2.9 mph SSW4.7 kmh SSW 7.0 mph11.3 kmh 30.00 in1015.9 mb 0.00 in0.0 mm 0.00 in/hr0.0 mm/hr 0.00 in0.0 mm
02:30 AM 55.8°F13.2°C 55.2°F12.9°C 98% 2.9 mph SSE4.7 kmh SSE 4.9 mph7.9 kmh 30.00 in1015.9 mb 0.00 in0.0 mm 0.00 in/hr0.0 mm/hr 0.00 in0.0 mm
02:25 AM 55.8°F13.2°C 55.2°F12.9°C 98% 2.9 mph SE4.7 kmh SE 8.9 mph14.3 kmh 29.99 in1015.6 mb 0.00 in0.0 mm 0.00 in/hr0.0 mm/hr 0.00 in0.0 mm
02:20 AM 55.8°F13.2°C 55.2°F12.9°C 98% 2.0 mph S3.2 kmh S 6.0 mph9.7 kmh 30.00 in1015.9 mb 0.00 in0.0 mm 0.00 in/hr0.0 mm/hr 0.00 in0.0 mm
02:15 AM 55.8°F13.2°C 55.2°F12.9°C 98% 0.9 mph S1.4 kmh S 4.9 mph7.9 kmh 30.00 in1015.9 mb 0.00 in0.0 mm 0.00 in/hr0.0 mm/hr 0.00 in0.0 mm
02:10 AM 55.8°F13.2°C 55.2°F12.9°C 98% 0.9 mph S1.4 kmh S 4.0 mph6.4 kmh 30.00 in1015.9 mb 0.00 in0.0 mm 0.00 in/hr0.0 mm/hr 0.00 in0.0 mm
02:05 AM 55.9°F13.3°C 55.0°F12.8°C 97% 2.0 mph S3.2 kmh S 4.9 mph7.9 kmh 30.00 in1015.9 mb 0.00 in0.0 mm 0.00 in/hr0.0 mm/hr 0.00 in0.0 mm
02:00 AM 55.9°F13.3°C 55.0°F12.8°C 97% 2.0 mph S3.2 kmh S 4.9 mph7.9 kmh 29.99 in1015.6 mb 0.00 in0.0 mm 0.00 in/hr0.0 mm/hr 0.00 in0.0 mm
01:55 AM 56.1°F13.4°C 55.2°F12.9°C 97% 2.0 mph SE3.2 kmh SE 4.9 mph7.9 kmh 29.99 in1015.6 mb 0.00 in0.0 mm 0.00 in/hr0.0 mm/hr 0.00 in0.0 mm
01:50 AM 56.1°F13.4°C 55.2°F12.9°C 97% 2.0 mph ESE3.2 kmh ESE 4.0 mph6.4 kmh 29.99 in1015.6 mb 0.00 in0.0 mm 0.00 in/hr0.0 mm/hr 0.00 in0.0 mm
01:45 AM 56.3°F13.5°C 55.4°F13.0°C 97% 2.0 mph SE3.2 kmh SE 4.9 mph7.9 kmh 30.00 in1015.9 mb 0.00 in0.0 mm 0.00 in/hr0.0 mm/hr 0.00 in0.0 mm
01:40 AM 56.3°F13.5°C 55.4°F13.0°C 97% 2.0 mph SSE3.2 kmh SSE 4.9 mph7.9 kmh 30.00 in1015.9 mb 0.00 in0.0 mm 0.00 in/hr0.0 mm/hr 0.00 in0.0 mm
01:35 AM 56.1°F13.4°C 55.2°F12.9°C 97% 2.0 mph SSE3.2 kmh SSE 5.0 mph8.0 kmh 30.00 in1015.9 mb 0.00 in0.0 mm 0.00 in/hr0.0 mm/hr 0.00 in0.0 mm
01:30 AM 56.1°F13.4°C 55.2°F12.9°C 97% 0.9 mph S1.4 kmh S 4.0 mph6.4 kmh 30.00 in1015.9 mb 0.00 in0.0 mm 0.00 in/hr0.0 mm/hr 0.00 in0.0 mm
01:25 AM 56.1°F13.4°C 55.2°F12.9°C 97% 2.0 mph SSE3.2 kmh SSE 6.9 mph11.1 kmh 30.00 in1015.9 mb 0.00 in0.0 mm 0.00 in/hr0.0 mm/hr 0.00 in0.0 mm
01:20 AM 56.3°F13.5°C 55.4°F13.0°C 97% 2.9 mph SSW4.7 kmh SSW 6.9 mph11.1 kmh 30.01 in1016.3 mb 0.00 in0.0 mm 0.00 in/hr0.0 mm/hr 0.00 in0.0 mm
01:15 AM 56.5°F13.6°C 55.6°F13.1°C 97% 2.9 mph SE4.7 kmh SE 6.9 mph11.1 kmh 30.00 in1015.9 mb 0.00 in0.0 mm 0.00 in/hr0.0 mm/hr 0.00 in0.0 mm
01:10 AM 56.5°F13.6°C 55.6°F13.1°C 97% 2.0 mph SSE3.2 kmh SSE 7.0 mph11.3 kmh 30.00 in1015.9 mb 0.00 in0.0 mm 0.00 in/hr0.0 mm/hr 0.00 in0.0 mm
01:05 AM 56.7°F13.7°C 55.8°F13.2°C 97% 2.0 mph SSW3.2 kmh SSW 6.0 mph9.7 kmh 30.01 in1016.3 mb 0.00 in0.0 mm 0.00 in/hr0.0 mm/hr 0.00 in0.0 mm
01:00 AM 56.7°F13.7°C 55.8°F13.2°C 97% 2.9 mph SE4.7 kmh SE 6.9 mph11.1 kmh 30.01 in1016.3 mb 0.00 in0.0 mm 0.00 in/hr0.0 mm/hr 0.00 in0.0 mm
12:55 AM 56.7°F13.7°C 55.8°F13.2°C 97% 2.9 mph SSW4.7 kmh SSW 6.9 mph11.1 kmh 30.01 in1016.3 mb 0.00 in0.0 mm 0.00 in/hr0.0 mm/hr 0.00 in0.0 mm
12:50 AM 56.7°F13.7°C 55.8°F13.2°C 97% 2.9 mph SSW4.7 kmh SSW 8.1 mph13.0 kmh 30.01 in1016.3 mb 0.00 in0.0 mm 0.00 in/hr0.0 mm/hr 0.00 in0.0 mm
12:45 AM 56.7°F13.7°C 55.8°F13.2°C 97% 2.0 mph SE3.2 kmh SE 7.0 mph11.3 kmh 30.01 in1016.3 mb 0.00 in0.0 mm 0.00 in/hr0.0 mm/hr 0.00 in0.0 mm
12:40 AM 56.8°F13.8°C 55.9°F13.3°C 97% 2.0 mph S3.2 kmh S 4.0 mph6.4 kmh 30.01 in1016.3 mb 0.00 in0.0 mm 0.00 in/hr0.0 mm/hr 0.00 in0.0 mm
12:35 AM 56.8°F13.8°C 55.9°F13.3°C 97% 2.0 mph S3.2 kmh S 6.0 mph9.7 kmh 30.01 in1016.3 mb 0.00 in0.0 mm 0.00 in/hr0.0 mm/hr 0.00 in0.0 mm
12:30 AM 57.0°F13.9°C 55.9°F13.3°C 96% 2.9 mph S4.7 kmh S 6.0 mph9.7 kmh 30.00 in1015.9 mb 0.00 in0.0 mm 0.00 in/hr0.0 mm/hr 0.00 in0.0 mm
12:25 AM 57.0°F13.9°C 55.9°F13.3°C 96% 2.9 mph SSE4.7 kmh SSE 6.9 mph11.1 kmh 30.00 in1015.9 mb 0.00 in0.0 mm 0.00 in/hr0.0 mm/hr 0.00 in0.0 mm
12:20 AM 57.2°F14.0°C 56.1°F13.4°C 96% 2.9 mph S4.7 kmh S 6.9 mph11.1 kmh 30.00 in1015.9 mb 0.00 in0.0 mm 0.00 in/hr0.0 mm/hr 0.00 in0.0 mm
12:15 AM 57.4°F14.1°C 56.3°F13.5°C 96% 4.0 mph S6.4 kmh S 8.9 mph14.3 kmh 30.00 in1015.9 mb 0.00 in0.0 mm 0.00 in/hr0.0 mm/hr 0.00 in0.0 mm
12:10 AM 57.6°F14.2°C 56.5°F13.6°C 96% 4.0 mph S6.4 kmh S 8.1 mph13.0 kmh 30.01 in1016.3 mb 0.00 in0.0 mm 0.00 in/hr0.0 mm/hr 0.00 in0.0 mm
12:05 AM 57.6°F14.2°C 56.5°F13.6°C 96% 2.9 mph S4.7 kmh S 8.1 mph13.0 kmh 30.00 in1015.9 mb 0.00 in0.0 mm 0.00 in/hr0.0 mm/hr 0.00 in0.0 mm
12:00 AM 57.6°F14.2°C 56.5°F13.6°C 96% 4.0 mph SSW6.4 kmh SSW 10.1 mph16.3 kmh 30.00 in1015.9 mb 0.00 in0.0 mm 0.00 in/hr0.0 mm/hr 0.00 in0.0 mm